Airfield :
LOGIN :

Register | Disclaimer

   EN    FR    IT 

 










Legend :    VFR   Marginal VFR   IFR   Intensive IFR   Very Intensive IFR
Visi :
Ceiling :
>= 8 km
>= 3000ft
5 to 8 km
1000 to 3000 ft
1500m to 5 km
500 to 1000 ft
800 to 1500m
200 to 500 ft
< 800m
< 200 ft
Symbols :   Thunderstorms  Fog  Heavy snow  Heavy precipitations  Wind > 20 kt
SIGMETs :     Misc.  Thunderstorms  Icing  Turbulence  Mountain Waves  Volcanic Ashes






- Airport Elevation : 75 ft
- IATA code : YEO


EGDY - RNAS Yeovilton

CURRENT METAR :
  • 291120Z 36009KT 9999 FEW005 SCT060 13/11 Q1004 TEMPO SCT015 RMK BLU TEMPO WHT

EXPIRED METARs :
  • 291050Z 35009KT 5000 VCSH FEW005 SCT015 BKN028 13/10 Q1004 BECMG 9999 FEW015 SCT030 RMK WHT BECMG BLU
  • 291020Z 01006KT 9999 FEW008 BKN015 12/11 Q1003 BECMG 9999 NSW BKN030 RMK WHT BECMG BLU
  • 290950Z 36003KT 5000 -DZ FEW005 SCT007 BKN015 11/10 Q1003 BECMG 9999 NSW BKN030 RMK GRN BECMG BLU
  • 290920Z 04003KT 9999 FEW008 BKN015 11/10 Q1003 BECMG 9999 NSW BKN030 RMK WHT BECMG BLU
  • 290850Z 33004KT 9999 FEW007 BKN015 11/10 Q1002 BECMG 9999 NSW BKN030 RMK WHT BECMG BLU

TAF TAF EGDY
Valid from the 29 at 12:00 until the 29 at 21:00 UTC


291105Z 2912/2921 01010KT 5000 -RA FEW005 SCT015
BECMG 2913/2915 9999 NSW FEW015 SCT030



MET'MAP, your aeronautical weather chart ! - Copyright ORBIFLY December 2007 - Disclaimer

ORBIFLY MET'MAP TEAM :

Programming & Development : Alexandra Zaïnal
Original concept : Baudouin d'Aumeries
Technical & hardware support : Manuel Goepfert
Assistance : Marc-Olivier Méhu




SOURCES & CREDITS :

   NOAA